createdAt,value
2023-04-02T00:01:47.534Z,33.71
2023-04-02T00:05:21.552Z,34.05
2023-04-02T00:08:41.666Z,33.53
2023-04-02T00:11:49.121Z,33.51
2023-04-02T00:14:55.775Z,33.28
2023-04-02T00:18:00.779Z,33.13
2023-04-02T00:21:30.158Z,32.95
2023-04-02T00:24:34.281Z,32.88
2023-04-02T00:27:37.832Z,32.73
2023-04-02T00:30:52.259Z,32.69
2023-04-02T00:33:56.992Z,32.88
2023-04-02T00:37:01.112Z,32.89
2023-04-02T00:40:08.924Z,32.79
2023-04-02T00:43:19.461Z,32.93
2023-04-02T00:46:31.056Z,32.99
2023-04-02T00:49:41.001Z,32.93
2023-04-02T00:52:47.515Z,32.47
2023-04-02T00:55:50.994Z,32.58
2023-04-02T00:58:57.146Z,32.86
2023-04-02T01:02:17.950Z,32.77
2023-04-02T01:05:24.681Z,32.37
2023-04-02T01:08:51.839Z,32.59
2023-04-02T01:12:29.267Z,32.54
2023-04-02T01:15:54.809Z,32.66
2023-04-02T01:18:59.167Z,32.70
2023-04-02T01:22:48.522Z,32.20
2023-04-02T01:26:20.420Z,32.03
2023-04-02T01:29:46.452Z,32.34
2023-04-02T01:32:51.373Z,32.56
2023-04-02T01:36:11.240Z,32.00
2023-04-02T01:39:36.499Z,32.60
2023-04-02T01:43:34.337Z,32.87
2023-04-02T01:46:43.160Z,32.88
2023-04-02T01:49:47.322Z,32.75
2023-04-02T01:52:55.195Z,32.70
2023-04-02T01:56:02.750Z,32.71
2023-04-02T01:59:12.069Z,33.07
2023-04-02T02:02:18.240Z,33.96
2023-04-02T02:05:24.131Z,34.41
2023-04-02T02:08:40.038Z,34.72
2023-04-02T02:11:45.964Z,35.25
2023-04-02T02:14:53.057Z,35.62
2023-04-02T02:18:07.427Z,39.74
2023-04-02T02:21:15.830Z,38.88
2023-04-02T02:24:26.698Z,40.17
2023-04-02T02:27:31.187Z,39.60
2023-04-02T02:30:58.025Z,40.28
2023-04-02T02:34:11.749Z,40.68
2023-04-02T02:37:29.442Z,43.93
2023-04-02T02:40:37.499Z,44.47
2023-04-02T02:43:45.133Z,44.53
2023-04-02T02:47:11.744Z,45.48
2023-04-02T02:50:23.628Z,46.40
2023-04-02T02:53:28.523Z,47.01
2023-04-02T02:56:37.776Z,45.70
2023-04-02T02:59:42.183Z,46.88
2023-04-02T03:02:49.501Z,48.36
2023-04-02T03:06:05.955Z,48.45
2023-04-02T03:09:28.199Z,49.39
2023-04-02T03:12:42.761Z,49.29
2023-04-02T03:16:02.273Z,50.40
2023-04-02T03:19:45.857Z,51.56
2023-04-02T03:23:07.263Z,54.18
2023-04-02T03:26:23.809Z,56.30
2023-04-02T03:29:38.374Z,56.39
2023-04-02T03:32:44.902Z,57.18
2023-04-02T03:36:11.688Z,59.29
2023-04-02T03:39:28.013Z,61.09
2023-04-02T03:42:42.329Z,64.01
2023-04-02T03:45:52.521Z,64.46
2023-04-02T03:49:02.227Z,65.72
2023-04-02T03:52:08.202Z,66.43
2023-04-02T03:55:24.444Z,66.74
2023-04-02T03:58:53.038Z,66.15
2023-04-02T04:02:21.912Z,67.32
2023-04-02T04:05:35.819Z,67.44
2023-04-02T04:09:17.156Z,67.03
2023-04-02T04:12:34.422Z,68.07
2023-04-02T04:16:01.648Z,66.41
2023-04-02T04:19:21.156Z,67.50
2023-04-02T04:22:35.128Z,66.63
2023-04-02T04:26:32.754Z,66.68
2023-04-02T04:29:52.555Z,66.81
2023-04-02T04:32:59.689Z,67.85
2023-04-02T04:36:06.755Z,67.73
2023-04-02T04:39:24.360Z,68.05
2023-04-02T04:42:33.956Z,68.63
2023-04-02T04:45:51.735Z,68.18
2023-04-02T04:49:12.450Z,68.31
2023-04-02T04:52:24.676Z,68.89
2023-04-02T04:55:42.730Z,67.91
2023-04-02T05:02:33.318Z,68.69
2023-04-02T05:05:41.463Z,68.53
2023-04-02T05:08:53.713Z,67.85
2023-04-02T05:12:38.631Z,69.28
2023-04-02T05:15:53.036Z,68.65
2023-04-02T05:19:17.424Z,65.68
2023-04-02T05:22:26.426Z,67.81
2023-04-02T05:25:36.317Z,66.35
2023-04-02T05:28:58.968Z,67.43
2023-04-02T05:32:12.512Z,68.47
2023-04-02T05:35:24.204Z,68.83
2023-04-02T05:38:36.837Z,67.39
2023-04-02T05:41:50.054Z,67.44
2023-04-02T05:45:20.487Z,68.57
2023-04-02T05:48:31.391Z,68.14
2023-04-02T05:51:49.689Z,68.58
2023-04-02T05:55:44.635Z,69.65
2023-04-02T05:59:02.351Z,69.18
2023-04-02T06:02:36.986Z,70.49
2023-04-02T06:05:47.273Z,69.61
2023-04-02T06:08:58.679Z,69.16
2023-04-02T06:12:30.604Z,68.06
2023-04-02T06:15:38.843Z,69.52
2023-04-02T06:18:47.091Z,68.81
2023-04-02T06:21:54.145Z,68.24
2023-04-02T06:25:06.684Z,68.07
2023-04-02T06:28:47.245Z,69.29
2023-04-02T06:32:02.058Z,68.66
2023-04-02T06:35:07.657Z,68.99
2023-04-02T06:38:21.398Z,68.39
2023-04-02T06:41:26.802Z,68.94
2023-04-02T06:44:43.165Z,69.00
2023-04-02T06:48:03.435Z,67.75
2023-04-02T06:51:21.646Z,67.60
2023-04-02T06:54:25.316Z,68.43
2023-04-02T06:57:36.747Z,67.94
2023-04-02T07:00:47.799Z,69.00
2023-04-02T07:03:59.327Z,68.99
2023-04-02T07:07:14.258Z,68.30
2023-04-02T07:10:28.877Z,66.23
2023-04-02T07:13:33.247Z,66.79
2023-04-02T07:16:37.421Z,66.44
2023-04-02T07:19:42.458Z,64.07
2023-04-02T07:22:46.189Z,66.04
2023-04-02T07:25:51.818Z,65.65
2023-04-02T07:28:57.122Z,66.01
2023-04-02T07:32:01.100Z,66.05
2023-04-02T07:35:06.676Z,65.95
2023-04-02T07:38:10.842Z,67.01
2023-04-02T07:41:15.082Z,66.52
2023-04-02T07:44:18.773Z,65.40
2023-04-02T07:47:22.953Z,64.88
2023-04-02T07:50:26.665Z,67.35
2023-04-02T07:53:41.562Z,65.77
2023-04-02T07:56:44.741Z,64.32
2023-04-02T07:59:48.429Z,65.25
2023-04-02T08:02:52.505Z,65.41
2023-04-02T08:05:59.072Z,66.54
2023-04-02T08:09:03.268Z,66.55
2023-04-02T08:12:06.686Z,67.56
2023-04-02T08:15:15.130Z,68.37
2023-04-02T08:18:18.796Z,69.18
2023-04-02T08:21:22.570Z,67.34
2023-04-02T08:24:26.603Z,67.43
2023-04-02T08:27:30.424Z,67.82
2023-04-02T08:30:34.387Z,68.92
2023-04-02T08:33:38.578Z,69.68
2023-04-02T08:36:45.799Z,68.22
2023-04-02T08:39:50.795Z,69.62
2023-04-02T08:43:00.305Z,69.08
2023-04-02T08:46:23.040Z,68.86
2023-04-02T08:49:47.345Z,68.60
2023-04-02T08:52:52.397Z,68.87
2023-04-02T08:56:09.100Z,68.99
2023-04-02T08:59:34.840Z,68.78
2023-04-02T09:02:47.598Z,68.91
2023-04-02T09:05:53.337Z,69.46
2023-04-02T09:08:58.495Z,69.52
2023-04-02T09:12:05.452Z,70.54
2023-04-02T09:15:19.094Z,70.84
2023-04-02T09:18:22.973Z,70.59
2023-04-02T09:21:41.671Z,70.61
2023-04-02T09:24:45.482Z,70.50
2023-04-02T09:31:23.737Z,70.36
2023-04-02T09:34:33.651Z,69.99
2023-04-02T09:37:38.010Z,70.82
2023-04-02T09:40:50.941Z,70.78
2023-04-02T09:44:22.781Z,71.07
2023-04-02T09:47:30.052Z,70.52
2023-04-02T09:50:34.918Z,67.75
2023-04-02T09:53:50.486Z,67.97
2023-04-02T09:57:06.673Z,69.81
2023-04-02T10:00:30.482Z,70.42
2023-04-02T10:03:37.468Z,70.70
2023-04-02T10:06:51.249Z,70.84
2023-04-02T10:10:05.211Z,71.38
2023-04-02T10:13:16.389Z,71.16
2023-04-02T10:16:35.907Z,71.26
2023-04-02T10:19:50.066Z,71.05
2023-04-02T10:22:54.548Z,69.83
2023-04-02T10:26:31.011Z,70.43
2023-04-02T10:30:06.760Z,70.48
2023-04-02T10:33:36.928Z,70.15
2023-04-02T10:37:05.737Z,69.97
2023-04-02T10:40:49.421Z,70.19
2023-04-02T10:44:22.076Z,70.94
2023-04-02T10:47:32.964Z,71.71
2023-04-02T10:50:54.777Z,71.98
2023-04-02T10:54:17.124Z,72.58
2023-04-02T10:57:43.812Z,72.84
2023-04-02T11:00:48.681Z,71.62
2023-04-02T11:04:04.128Z,70.91
2023-04-02T11:07:14.992Z,70.74
2023-04-02T11:10:21.048Z,68.47
2023-04-02T11:13:54.698Z,67.04
2023-04-02T11:17:01.203Z,65.14
2023-04-02T11:21:02.453Z,65.34
2023-04-02T11:24:06.906Z,64.25
2023-04-02T11:27:13.116Z,63.31
2023-04-02T11:30:28.921Z,63.92
2023-04-02T11:33:39.331Z,63.09
2023-04-02T11:36:55.608Z,63.87
2023-04-02T11:40:06.668Z,64.90
2023-04-02T11:43:34.822Z,63.99
2023-04-02T11:46:46.338Z,64.22
2023-04-02T11:49:56.429Z,63.75
2023-04-02T11:53:05.302Z,64.08
2023-04-02T11:56:29.638Z,63.91
2023-04-02T12:00:32.365Z,63.25
2023-04-02T12:04:00.748Z,63.33
2023-04-02T12:07:35.572Z,62.84
2023-04-02T12:10:58.084Z,63.18
2023-04-02T12:14:02.614Z,63.69
2023-04-02T12:17:18.445Z,63.10
2023-04-02T12:20:33.193Z,63.15
2023-04-02T12:23:38.353Z,63.06
2023-04-02T12:26:43.843Z,62.88
2023-04-02T12:29:47.857Z,62.70
2023-04-02T12:32:52.082Z,62.95
2023-04-02T12:36:04.029Z,62.60
2023-04-02T12:39:18.164Z,63.01
2023-04-02T12:42:31.079Z,63.70
2023-04-02T12:45:36.343Z,64.93
2023-04-02T12:48:40.403Z,65.50
2023-04-02T12:51:44.247Z,66.09
2023-04-02T12:54:56.784Z,66.44
2023-04-02T12:58:01.983Z,66.81
2023-04-02T13:01:30.379Z,67.50
2023-04-02T13:04:33.996Z,67.59
2023-04-02T13:07:39.166Z,67.85
2023-04-02T13:10:45.052Z,68.08
2023-04-02T13:13:52.707Z,67.75
2023-04-02T13:16:57.343Z,66.89
2023-04-02T13:20:37.652Z,67.27
2023-04-02T13:23:46.959Z,67.17
2023-04-02T13:26:52.240Z,66.58
2023-04-02T13:29:56.270Z,66.31
2023-04-02T13:33:00.354Z,66.78
2023-04-02T13:36:04.330Z,67.13
2023-04-02T13:39:08.950Z,67.52
2023-04-02T13:42:13.764Z,67.80
2023-04-02T13:45:23.401Z,67.90
2023-04-02T13:48:29.808Z,68.06
2023-04-02T13:51:45.146Z,68.14
2023-04-02T13:54:50.259Z,68.06
2023-04-02T13:57:53.708Z,68.07
2023-04-02T14:01:02.448Z,68.28
2023-04-02T14:04:07.135Z,67.86
2023-04-02T14:07:21.406Z,68.37
2023-04-02T14:10:45.994Z,68.14
2023-04-02T14:14:10.053Z,67.89
2023-04-02T14:17:48.104Z,67.72
2023-04-02T14:20:53.945Z,67.62
2023-04-02T14:24:18.315Z,67.66
2023-04-02T14:27:48.650Z,67.52
2023-04-02T14:31:09.706Z,67.33
2023-04-02T14:34:37.186Z,66.99
2023-04-02T14:37:49.269Z,66.86
2023-04-02T14:41:17.920Z,66.81
2023-04-02T14:44:27.050Z,66.09
2023-04-02T14:47:55.414Z,65.62
2023-04-02T14:51:03.748Z,65.24
2023-04-02T14:54:19.586Z,65.37
2023-04-02T14:57:33.796Z,65.46
2023-04-02T15:04:23.751Z,66.24
2023-04-02T15:07:35.562Z,66.64
2023-04-02T15:14:45.032Z,67.54
2023-04-02T15:17:52.013Z,67.81
2023-04-02T15:21:10.324Z,68.14
2023-04-02T15:28:43.830Z,68.89
2023-04-02T15:31:52.632Z,69.11
2023-04-02T15:35:09.251Z,69.15
2023-04-02T15:38:38.896Z,69.30
2023-04-02T15:42:02.348Z,69.21
2023-04-02T15:45:21.715Z,69.80
2023-04-02T15:48:34.644Z,70.03
2023-04-02T15:51:49.863Z,70.30
2023-04-02T15:55:34.610Z,70.55
2023-04-02T15:59:00.526Z,70.56
2023-04-02T16:02:21.013Z,70.59
2023-04-02T16:05:37.313Z,70.27
2023-04-02T16:09:05.301Z,70.10
2023-04-02T16:12:20.802Z,70.21
2023-04-02T16:15:41.393Z,70.31
2023-04-02T16:19:16.698Z,70.28
2023-04-02T16:22:36.014Z,70.16
2023-04-02T16:26:15.558Z,69.99
2023-04-02T16:29:47.394Z,69.70
2023-04-02T16:33:21.966Z,69.47
2023-04-02T16:36:47.980Z,69.74
2023-04-02T16:41:04.671Z,69.25
2023-04-02T16:44:17.228Z,69.62
2023-04-02T16:47:43.371Z,69.50
2023-04-02T16:51:15.921Z,68.68
2023-04-02T16:54:40.725Z,68.03
2023-04-02T16:58:20.076Z,67.54
2023-04-02T17:01:51.162Z,67.51
2023-04-02T17:05:18.084Z,67.41
2023-04-02T17:08:37.256Z,67.22
2023-04-02T17:11:54.257Z,66.79
2023-04-02T17:15:24.897Z,66.95
2023-04-02T17:18:38.838Z,66.85
2023-04-02T17:21:51.453Z,66.29
2023-04-02T17:25:07.257Z,66.04
2023-04-02T17:28:28.572Z,66.14
2023-04-02T17:31:40.326Z,65.96
2023-04-02T17:34:53.191Z,65.77
2023-04-02T17:38:10.100Z,65.97
2023-04-02T17:41:47.920Z,65.82
2023-04-02T17:44:56.737Z,65.98
2023-04-02T17:48:16.835Z,65.67
2023-04-02T17:51:25.795Z,65.64
2023-04-02T17:54:54.753Z,65.48
2023-04-02T17:58:14.240Z,65.66
2023-04-02T18:01:43.640Z,65.53
2023-04-02T18:05:12.244Z,65.20
2023-04-02T18:08:40.207Z,65.28
2023-04-02T18:12:10.550Z,65.23
2023-04-02T18:15:31.157Z,64.12
2023-04-02T18:18:54.724Z,64.23
2023-04-02T18:22:20.338Z,64.32
2023-04-02T18:25:34.820Z,63.72
2023-04-02T18:29:06.887Z,63.33
2023-04-02T18:32:46.553Z,62.93
2023-04-02T18:36:29.433Z,62.68
2023-04-02T18:40:01.239Z,62.08
2023-04-02T18:44:00.318Z,61.22
2023-04-02T18:47:56.077Z,60.61
2023-04-02T18:51:07.356Z,61.54
2023-04-02T18:54:33.264Z,60.05
2023-04-02T18:57:46.435Z,60.11
2023-04-02T19:00:56.390Z,60.24
2023-04-02T19:04:12.628Z,60.58
2023-04-02T19:07:23.718Z,59.96
2023-04-02T19:10:45.748Z,60.03
2023-04-02T19:13:54.998Z,59.95
2023-04-02T19:17:31.227Z,60.43
2023-04-02T19:20:59.958Z,59.95
2023-04-02T19:24:27.518Z,60.65
2023-04-02T19:28:22.349Z,60.72
2023-04-02T19:31:54.078Z,61.27
2023-04-02T19:35:35.902Z,61.42
2023-04-02T19:39:13.493Z,61.72
2023-04-02T19:42:40.962Z,61.89
2023-04-02T19:45:53.061Z,62.54
2023-04-02T19:49:08.853Z,61.98
2023-04-02T19:52:19.625Z,61.90
2023-04-02T19:55:29.877Z,62.06
2023-04-02T19:58:41.270Z,62.11
2023-04-02T20:01:50.803Z,61.87
2023-04-02T20:05:00.795Z,61.86
2023-04-02T20:08:10.919Z,62.03
2023-04-02T20:11:21.898Z,61.30
2023-04-02T20:14:31.646Z,61.67
2023-04-02T20:17:42.032Z,61.87
2023-04-02T20:20:54.111Z,61.20
2023-04-02T20:24:04.381Z,60.08
2023-04-02T20:27:17.418Z,59.76
2023-04-02T20:30:30.743Z,59.05
2023-04-02T20:33:40.704Z,57.49
2023-04-02T20:36:53.678Z,58.00
2023-04-02T20:40:08.174Z,56.77
2023-04-02T20:43:22.125Z,57.18
2023-04-02T20:49:53.733Z,57.19
2023-04-02T20:53:11.445Z,57.02
2023-04-02T20:59:45.092Z,56.96
2023-04-02T21:02:57.515Z,57.23
2023-04-02T21:09:29.296Z,56.87
2023-04-02T21:12:42.806Z,56.53
2023-04-02T21:15:56.509Z,56.18
2023-04-02T21:19:13.165Z,56.34
2023-04-02T21:26:12.284Z,56.11
2023-04-02T21:32:49.037Z,55.91
2023-04-02T21:42:50.295Z,56.68
2023-04-02T21:59:43.090Z,55.78
2023-04-02T22:02:57.001Z,55.36
2023-04-02T22:06:23.823Z,55.12
2023-04-02T22:09:35.419Z,55.47
2023-04-02T22:12:47.203Z,55.48
2023-04-02T22:16:00.989Z,54.99
2023-04-02T22:19:21.852Z,55.05
2023-04-02T22:22:36.338Z,55.02
2023-04-02T22:25:53.436Z,55.03
2023-04-02T22:29:13.621Z,54.70
2023-04-02T22:32:18.910Z,54.60
2023-04-02T22:35:22.194Z,54.96
2023-04-02T22:38:30.882Z,54.29
2023-04-02T22:41:34.762Z,54.91
2023-04-02T22:44:39.104Z,53.98
2023-04-02T22:47:43.464Z,54.32
2023-04-02T22:50:51.449Z,53.64
2023-04-02T22:53:56.145Z,53.35
2023-04-02T22:57:03.206Z,53.56
2023-04-02T23:00:14.253Z,53.83
2023-04-02T23:03:24.605Z,53.52
2023-04-02T23:06:35.173Z,53.41
2023-04-02T23:09:45.451Z,52.86
2023-04-02T23:12:55.492Z,52.99
2023-04-02T23:16:07.931Z,52.74
2023-04-02T23:19:18.983Z,53.20
2023-04-02T23:22:29.463Z,52.77
2023-04-02T23:25:40.546Z,51.76
2023-04-02T23:28:50.701Z,51.71
2023-04-02T23:32:00.455Z,51.19
2023-04-02T23:35:10.900Z,51.19
2023-04-02T23:38:20.749Z,50.86
2023-04-02T23:41:32.048Z,51.03
2023-04-02T23:44:41.795Z,51.14
2023-04-02T23:47:54.227Z,50.26
2023-04-02T23:51:03.129Z,49.73
2023-04-02T23:54:13.822Z,49.43
2023-04-02T23:57:24.400Z,49.25
